Time;durP1;ratioP1;P1;durP2;ratioP2;P2;SDS_P1;SDS_P2;PMS_P1;PMS_P2;Temp;Humidity;BMP_temperature;BMP_pressure;BME280_temperature;BME280_humidity;BME280_pressure;Samples;Min_cycle;Max_cycle;Signal;HPM_P1;HPM_P2
2023/09/13 00:01:50;;;;;;;2.75;2.03;;;23.00;79.70;;;;;;5051892;28;20035;-66
2023/09/13 00:04:16;;;;;;;2.60;1.90;;;23.00;79.70;;;;;;5069907;28;20033;-66
2023/09/13 00:06:41;;;;;;;2.15;1.85;;;23.00;79.60;;;;;;5048812;28;20124;-66
2023/09/13 00:09:08;;;;;;;2.55;1.52;;;22.90;79.70;;;;;;5068090;28;20119;-64
2023/09/13 00:11:35;;;;;;;2.35;1.52;;;22.90;79.70;;;;;;5065475;28;20040;-66
2023/09/13 00:14:01;;;;;;;1.70;1.30;;;22.90;79.60;;;;;;5067303;28;20523;-66
2023/09/13 00:16:26;;;;;;;2.22;1.75;;;22.90;79.50;;;;;;5048724;28;20098;-66
2023/09/13 00:18:52;;;;;;;2.05;1.75;;;22.90;79.60;;;;;;5065371;28;20048;-66
2023/09/13 00:21:18;;;;;;;2.65;1.83;;;22.80;79.50;;;;;;5050562;28;20500;-65
2023/09/13 00:23:44;;;;;;;4.95;2.17;;;22.80;79.70;;;;;;5066545;28;20120;-65
2023/09/13 00:26:09;;;;;;;2.38;1.48;;;22.70;80.00;;;;;;5067054;28;20388;-65
2023/09/13 00:28:35;;;;;;;2.30;1.98;;;22.70;80.00;;;;;;5069013;28;20079;-65
2023/09/13 00:31:01;;;;;;;3.75;1.77;;;22.70;80.00;;;;;;5062855;28;20021;-65
2023/09/13 00:33:26;;;;;;;3.47;1.70;;;22.70;80.00;;;;;;5060264;28;20024;-65
2023/09/13 00:35:58;;;;;;;3.95;2.10;;;22.60;80.10;;;;;;5072795;28;20037;-65
2023/09/13 00:38:24;;;;;;;2.88;1.67;;;22.60;80.80;;;;;;5064388;28;20032;-65
2023/09/13 00:40:50;;;;;;;4.55;2.22;;;22.60;80.30;;;;;;5068830;28;20537;-66
2023/09/13 00:43:15;;;;;;;2.53;1.48;;;22.60;80.30;;;;;;5073105;28;20055;-65
2023/09/13 00:45:41;;;;;;;4.32;2.67;;;22.60;80.10;;;;;;5069793;28;20082;-66
2023/09/13 00:48:08;;;;;;;2.72;1.70;;;22.70;80.10;;;;;;5066723;28;20058;-65
2023/09/13 00:50:36;;;;;;;3.05;1.92;;;22.70;80.10;;;;;;5070899;28;20040;-65
2023/09/13 00:53:03;;;;;;;3.00;2.40;;;22.60;80.20;;;;;;5054425;28;20448;-65
2023/09/13 00:55:29;;;;;;;4.78;2.67;;;22.60;80.30;;;;;;5071343;28;20405;-64
2023/09/13 00:57:57;;;;;;;1.98;1.77;;;22.60;80.40;;;;;;5060078;28;20468;-65
2023/09/13 01:00:24;;;;;;;3.08;2.10;;;22.60;80.40;;;;;;5069841;28;20039;-65
2023/09/13 01:02:51;;;;;;;2.85;1.63;;;22.60;80.40;;;;;;5063469;28;20037;-65
2023/09/13 01:05:17;;;;;;;2.30;1.50;;;22.60;80.30;;;;;;5068530;28;20062;-65
2023/09/13 01:07:44;;;;;;;2.75;1.52;;;22.60;80.10;;;;;;5051658;28;20045;-64
2023/09/13 01:10:11;;;;;;;2.95;1.90;;;22.60;80.10;;;;;;5069399;28;20036;-65
2023/09/13 01:12:36;;;;;;;2.60;1.83;;;22.60;80.10;;;;;;5068811;28;20028;-65
2023/09/13 01:15:07;;;;;;;2.47;2.03;;;22.60;80.10;;;;;;5066932;28;20032;-65
2023/09/13 01:17:41;;;;;;;4.00;2.17;;;22.60;80.20;;;;;;5067566;28;20028;-65
2023/09/13 01:20:33;;;;;;;2.88;1.77;;;22.50;80.20;;;;;;5043005;28;20087;-65
2023/09/13 01:23:01;;;;;;;3.25;1.85;;;22.50;80.30;;;;;;5047025;28;20361;-65
2023/09/13 01:25:36;;;;;;;3.15;1.92;;;22.40;80.40;;;;;;5044502;28;20082;-65
2023/09/13 01:28:28;;;;;;;2.55;1.85;;;22.40;80.50;;;;;;5042626;28;20029;-66
2023/09/13 01:30:55;;;;;;;4.10;2.92;;;22.40;80.60;;;;;;5030579;28;20049;-66
2023/09/13 01:33:20;;;;;;;2.92;2.10;;;22.30;80.90;;;;;;5037836;28;20029;-66
2023/09/13 01:35:46;;;;;;;2.20;1.70;;;22.30;81.00;;;;;;5041658;28;20514;-66
2023/09/13 01:38:12;;;;;;;3.13;2.38;;;22.30;80.90;;;;;;5043181;28;20021;-66
2023/09/13 01:40:40;;;;;;;2.72;1.88;;;22.30;80.90;;;;;;5042103;28;20080;-66
2023/09/13 01:43:07;;;;;;;4.20;2.83;;;22.30;80.80;;;;;;5044488;28;20548;-66
2023/09/13 01:45:34;;;;;;;5.50;2.05;;;22.30;80.70;;;;;;5034775;28;20484;-66
2023/09/13 01:48:02;;;;;;;3.90;2.20;;;22.30;80.70;;;;;;5043746;28;20028;-66
2023/09/13 01:50:29;;;;;;;2.92;2.05;;;22.40;80.60;;;;;;5040392;28;20037;-66
2023/09/13 01:52:55;;;;;;;3.92;2.35;;;22.30;80.60;;;;;;5045675;28;20028;-66
2023/09/13 01:55:20;;;;;;;4.95;2.75;;;22.30;80.50;;;;;;5041336;28;20477;-66
2023/09/13 01:57:46;;;;;;;3.45;2.83;;;22.30;80.60;;;;;;5045989;28;20036;-66
2023/09/13 02:00:12;;;;;;;3.95;2.47;;;22.30;80.80;;;;;;5044120;28;20029;-66
2023/09/13 02:02:38;;;;;;;2.75;1.83;;;22.30;80.90;;;;;;5041080;28;20029;-66
2023/09/13 02:05:04;;;;;;;3.35;2.10;;;22.30;80.80;;;;;;5043472;28;20484;-66
2023/09/13 02:07:30;;;;;;;3.33;1.88;;;22.30;80.60;;;;;;5048403;28;20039;-65
2023/09/13 02:09:55;;;;;;;2.25;1.40;;;22.30;80.60;;;;;;5044633;28;20021;-66
2023/09/13 02:12:21;;;;;;;4.97;2.50;;;22.30;80.50;;;;;;5044446;28;20071;-66
2023/09/13 02:14:47;;;;;;;4.18;3.13;;;22.30;80.60;;;;;;5043523;28;20025;-66
2023/09/13 02:17:12;;;;;;;4.47;2.70;;;22.30;80.80;;;;;;5041111;28;20029;-66
2023/09/13 02:19:38;;;;;;;3.60;2.75;;;22.20;80.90;;;;;;5037388;28;20056;-64
2023/09/13 02:22:04;;;;;;;5.40;2.28;;;22.20;81.10;;;;;;5047262;28;20128;-64
2023/09/13 02:24:32;;;;;;;3.50;2.05;;;22.20;81.40;;;;;;5040991;28;20040;-64
2023/09/13 02:26:58;;;;;;;3.10;2.22;;;22.20;81.40;;;;;;5065869;28;20024;-64
2023/09/13 02:29:24;;;;;;;2.42;2.00;;;22.20;81.40;;;;;;5043298;28;20052;-65
2023/09/13 02:31:50;;;;;;;3.97;1.83;;;22.20;81.50;;;;;;5034267;28;20120;-64
2023/09/13 02:34:16;;;;;;;4.60;2.00;;;22.20;81.50;;;;;;5049565;28;20104;-65
2023/09/13 02:36:42;;;;;;;3.88;2.15;;;22.20;81.70;;;;;;5035380;28;20030;-65
2023/09/13 02:39:34;;;;;;;3.58;2.22;;;22.20;81.70;;;;;;5035393;28;20522;-66
2023/09/13 02:42:03;;;;;;;3.50;2.30;;;22.20;81.50;;;;;;5040008;28;20033;-66
2023/09/13 02:44:32;;;;;;;4.60;2.75;;;22.20;81.60;;;;;;5042520;28;20068;-66
2023/09/13 02:46:59;;;;;;;4.22;1.98;;;22.20;81.60;;;;;;5047024;28;20112;-66
2023/09/13 02:49:24;;;;;;;4.57;2.58;;;22.20;81.70;;;;;;5040933;28;20508;-66
2023/09/13 02:51:51;;;;;;;5.30;2.50;;;22.20;81.80;;;;;;5044708;28;20032;-64
2023/09/13 02:54:17;;;;;;;3.83;2.67;;;22.10;81.80;;;;;;5045271;28;20025;-67
2023/09/13 02:56:44;;;;;;;3.17;2.38;;;22.10;81.90;;;;;;5057712;28;20021;-66
2023/09/13 02:59:09;;;;;;;2.40;2.03;;;22.10;81.80;;;;;;5049527;28;20028;-65
2023/09/13 03:01:35;;;;;;;4.15;2.67;;;22.20;81.70;;;;;;5047055;28;20037;-65
2023/09/13 03:04:02;;;;;;;4.07;2.17;;;22.10;81.60;;;;;;5045949;28;20033;-65
2023/09/13 03:06:29;;;;;;;8.32;2.80;;;22.20;81.70;;;;;;5045850;28;20041;-65
2023/09/13 03:08:55;;;;;;;5.03;2.22;;;22.20;81.70;;;;;;5047321;28;20548;-66
2023/09/13 03:11:21;;;;;;;5.85;2.10;;;22.20;81.80;;;;;;5043478;28;20037;-66
2023/09/13 03:13:47;;;;;;;4.93;2.97;;;22.20;81.90;;;;;;5044267;28;20041;-66
2023/09/13 03:16:19;;;;;;;2.83;1.92;;;22.10;81.90;;;;;;5038302;28;20103;-66
2023/09/13 03:18:47;;;;;;;4.68;2.90;;;22.10;81.90;;;;;;5056093;28;20025;-66
2023/09/13 03:21:13;;;;;;;3.58;2.63;;;22.10;82.50;;;;;;5066255;28;20039;-66
2023/09/13 03:23:42;;;;;;;3.15;2.60;;;22.10;81.90;;;;;;5062337;28;20430;-66
2023/09/13 03:26:18;;;;;;;2.83;2.35;;;22.10;81.90;;;;;;5066572;28;20017;-66
2023/09/13 03:28:49;;;;;;;3.80;1.98;;;22.10;81.80;;;;;;5065504;28;20119;-66
2023/09/13 03:31:17;;;;;;;3.80;2.37;;;22.10;81.60;;;;;;5059318;28;20426;-66
2023/09/13 03:33:44;;;;;;;2.80;2.22;;;22.10;81.60;;;;;;5060961;28;20031;-66
2023/09/13 03:36:10;;;;;;;3.60;2.35;;;22.00;81.60;;;;;;5066615;28;20037;-67
2023/09/13 03:38:38;;;;;;;3.75;2.47;;;22.00;81.70;;;;;;5064886;28;20033;-66
2023/09/13 03:41:05;;;;;;;4.93;3.28;;;22.00;81.70;;;;;;5067521;28;20036;-66
2023/09/13 03:43:31;;;;;;;6.57;3.13;;;22.10;81.70;;;;;;5060503;28;20094;-66
2023/09/13 03:45:57;;;;;;;3.85;2.45;;;22.00;81.60;;;;;;5066380;28;20024;-66
2023/09/13 03:48:23;;;;;;;3.55;2.22;;;22.10;81.70;;;;;;5062114;28;20029;-66
2023/09/13 03:50:51;;;;;;;4.05;1.80;;;22.10;81.60;;;;;;5064226;28;20028;-65
2023/09/13 03:53:17;;;;;;;3.65;2.40;;;22.10;81.60;;;;;;5066712;28;20040;-66
2023/09/13 03:55:43;;;;;;;3.60;2.67;;;22.00;81.80;;;;;;5065322;28;20028;-66
2023/09/13 03:58:09;;;;;;;3.35;2.47;;;22.00;82.00;;;;;;5057238;28;20021;-66
2023/09/13 04:00:36;;;;;;;3.85;2.22;;;21.90;82.10;;;;;;5057216;28;20036;-66
2023/09/13 04:03:02;;;;;;;2.70;2.15;;;21.90;82.00;;;;;;5058730;28;20037;-66
2023/09/13 04:05:29;;;;;;;4.18;2.10;;;22.00;82.10;;;;;;5064563;28;20021;-66
2023/09/13 04:07:55;;;;;;;3.85;2.20;;;22.00;82.10;;;;;;5024676;28;20040;-66
2023/09/13 04:10:21;;;;;;;4.18;2.22;;;22.00;82.00;;;;;;5069436;28;20024;-66
2023/09/13 04:12:47;;;;;;;3.40;1.80;;;22.00;81.90;;;;;;5065443;28;20472;-66
2023/09/13 04:15:13;;;;;;;3.63;2.00;;;22.10;81.90;;;;;;5067432;28;20029;-65
2023/09/13 04:17:39;;;;;;;2.10;1.80;;;22.10;81.90;;;;;;5066217;28;20028;-66
2023/09/13 04:20:06;;;;;;;2.38;1.92;;;22.10;81.90;;;;;;5065396;28;20052;-67
2023/09/13 04:22:31;;;;;;;3.30;1.77;;;22.10;81.80;;;;;;5061631;28;20029;-66
2023/09/13 04:24:57;;;;;;;3.03;1.77;;;22.10;81.80;;;;;;5068371;28;20029;-66
2023/09/13 04:27:23;;;;;;;4.28;2.53;;;22.10;81.90;;;;;;5060733;28;20028;-66
2023/09/13 04:29:49;;;;;;;4.45;3.10;;;22.10;82.00;;;;;;5068211;28;20660;-66
2023/09/13 04:32:15;;;;;;;5.70;3.05;;;22.10;82.10;;;;;;5047223;28;20033;-66
2023/09/13 04:34:41;;;;;;;3.95;3.30;;;22.10;82.10;;;;;;5066628;28;20545;-66
2023/09/13 04:37:07;;;;;;;5.75;3.38;;;22.10;82.20;;;;;;5060485;28;20096;-66
2023/09/13 04:39:33;;;;;;;7.07;4.88;;;22.10;82.30;;;;;;5068892;28;20452;-66
2023/09/13 04:41:59;;;;;;;8.43;4.82;;;22.00;82.50;;;;;;5050491;28;20256;-66
2023/09/13 04:44:26;;;;;;;15.93;5.43;;;22.00;82.90;;;;;;5068051;28;20054;-65
2023/09/13 04:46:52;;;;;;;11.02;6.00;;;22.00;83.10;;;;;;5070651;28;20095;-65
2023/09/13 04:49:18;;;;;;;13.38;8.02;;;21.90;83.30;;;;;;5058664;28;21606;-65
2023/09/13 04:51:44;;;;;;;11.43;5.88;;;21.80;83.70;;;;;;5068574;28;20082;-65
2023/09/13 04:54:10;;;;;;;10.40;5.97;;;21.80;83.90;;;;;;5061102;28;20435;-65
2023/09/13 04:56:36;;;;;;;15.68;6.38;;;21.80;84.00;;;;;;5067964;28;20021;-65
2023/09/13 04:59:02;;;;;;;14.75;7.07;;;21.80;84.00;;;;;;5064688;28;20167;-65
2023/09/13 05:01:28;;;;;;;16.15;7.95;;;21.70;84.00;;;;;;5065306;28;20036;-65
2023/09/13 05:03:54;;;;;;;14.23;7.57;;;21.70;84.10;;;;;;5068891;28;20032;-65
2023/09/13 05:06:20;;;;;;;14.18;6.90;;;21.70;84.20;;;;;;5071632;28;20059;-66
2023/09/13 05:08:46;;;;;;;14.40;8.27;;;21.60;84.20;;;;;;5060437;28;20025;-66
2023/09/13 05:11:12;;;;;;;13.73;5.95;;;21.60;84.30;;;;;;5068172;28;20063;-66
2023/09/13 05:13:39;;;;;;;10.15;4.38;;;21.60;84.30;;;;;;5046326;28;20052;-66
2023/09/13 05:16:04;;;;;;;9.98;6.07;;;21.60;84.10;;;;;;5065084;28;20295;-66
2023/09/13 05:18:30;;;;;;;13.07;6.88;;;21.60;83.90;;;;;;5063918;28;20431;-66
2023/09/13 05:20:56;;;;;;;14.77;7.47;;;21.60;83.90;;;;;;5068991;28;20048;-66
2023/09/13 05:23:21;;;;;;;12.40;6.88;;;21.60;83.80;;;;;;5029834;28;20387;-66
2023/09/13 05:25:48;;;;;;;11.55;5.90;;;21.60;83.80;;;;;;5067483;28;20134;-66
2023/09/13 05:28:15;;;;;;;15.48;7.25;;;21.60;83.80;;;;;;5067364;28;20075;-66
2023/09/13 05:30:42;;;;;;;10.65;5.65;;;21.50;83.80;;;;;;5067768;28;20033;-66
2023/09/13 05:33:08;;;;;;;13.25;6.47;;;21.50;83.90;;;;;;5067759;28;20021;-66
2023/09/13 05:35:34;;;;;;;12.30;6.45;;;21.50;83.90;;;;;;5066657;28;20041;-65
2023/09/13 05:38:00;;;;;;;11.23;5.60;;;21.50;83.90;;;;;;5070040;28;20027;-65
2023/09/13 05:40:29;;;;;;;15.68;7.70;;;21.50;83.90;;;;;;5071887;28;20020;-65
2023/09/13 05:42:56;;;;;;;15.73;8.13;;;21.40;83.80;;;;;;5070653;28;20031;-65
2023/09/13 05:45:23;;;;;;;13.77;6.95;;;21.40;83.80;;;;;;5056386;28;20071;-65
2023/09/13 05:47:52;;;;;;;14.13;7.22;;;21.30;83.80;;;;;;5067824;28;20066;-65
2023/09/13 05:50:17;;;;;;;15.95;8.68;;;21.40;84.00;;;;;;5070042;28;20048;-65
2023/09/13 05:52:43;;;;;;;12.63;6.65;;;21.40;84.10;;;;;;5069361;28;20032;-65
2023/09/13 05:55:09;;;;;;;11.73;6.75;;;21.40;84.10;;;;;;5068114;28;20028;-65
2023/09/13 05:57:35;;;;;;;13.85;7.22;;;21.30;84.00;;;;;;5060808;28;20476;-66
2023/09/13 06:00:00;;;;;;;12.30;5.88;;;21.40;84.10;;;;;;5063848;28;20016;-64
2023/09/13 06:02:26;;;;;;;12.18;6.68;;;21.30;84.60;;;;;;5067935;28;20043;-65
2023/09/13 06:04:52;;;;;;;14.10;7.80;;;21.40;84.00;;;;;;5062055;28;20090;-66
2023/09/13 06:07:18;;;;;;;13.68;6.72;;;21.30;83.80;;;;;;5063959;28;20491;-66
2023/09/13 06:09:43;;;;;;;13.18;7.07;;;21.40;83.90;;;;;;5038527;28;20040;-66
2023/09/13 06:12:09;;;;;;;12.25;6.65;;;21.30;83.80;;;;;;5048510;28;20029;-66
2023/09/13 06:14:36;;;;;;;14.60;7.93;;;21.40;84.00;;;;;;5066175;28;20063;-65
2023/09/13 06:17:02;;;;;;;12.35;6.28;;;21.40;83.90;;;;;;5044849;28;20404;-65
2023/09/13 06:19:27;;;;;;;14.48;6.43;;;21.40;83.90;;;;;;5064790;28;20041;-66
2023/09/13 06:21:53;;;;;;;8.77;4.95;;;21.30;83.70;;;;;;5063666;28;20033;-66
2023/09/13 06:24:19;;;;;;;13.27;7.50;;;21.30;83.70;;;;;;5063940;28;20047;-66
2023/09/13 06:26:45;;;;;;;17.95;6.82;;;21.40;83.80;;;;;;5066517;28;20036;-65
2023/09/13 06:29:10;;;;;;;11.85;5.55;;;21.30;83.70;;;;;;5063016;28;20029;-66
2023/09/13 06:31:37;;;;;;;15.60;6.53;;;21.30;83.80;;;;;;5063805;28;20040;-66
2023/09/13 06:34:03;;;;;;;16.77;8.23;;;21.30;83.80;;;;;;5064694;28;20083;-65
2023/09/13 06:36:29;;;;;;;12.18;5.88;;;21.30;83.80;;;;;;5064807;28;20032;-65
2023/09/13 06:38:55;;;;;;;14.85;7.05;;;21.30;83.80;;;;;;5044635;28;20030;-65
2023/09/13 06:41:21;;;;;;;11.90;5.70;;;21.30;83.90;;;;;;5064947;28;20131;-66
2023/09/13 06:43:46;;;;;;;12.95;6.05;;;21.30;83.90;;;;;;5063877;28;20069;-65
2023/09/13 06:46:12;;;;;;;10.65;6.03;;;21.40;83.90;;;;;;5064296;28;20041;-66
2023/09/13 06:48:38;;;;;;;10.05;5.93;;;21.40;83.80;;;;;;5047436;28;20037;-65
2023/09/13 06:51:04;;;;;;;9.73;4.57;;;21.50;83.90;;;;;;5060070;28;20162;-65
2023/09/13 06:53:29;;;;;;;7.85;4.72;;;21.40;83.70;;;;;;5060893;28;20021;-65
2023/09/13 06:55:55;;;;;;;10.68;4.70;;;21.40;83.80;;;;;;5060433;28;20253;-65
2023/09/13 06:58:22;;;;;;;4.50;3.22;;;21.40;83.70;;;;;;5063142;28;20021;-65
2023/09/13 07:00:47;;;;;;;7.97;4.38;;;21.50;83.60;;;;;;5047733;28;20085;-65
2023/09/13 07:03:13;;;;;;;7.00;4.00;;;21.50;83.50;;;;;;5064997;28;20453;-65
2023/09/13 07:05:38;;;;;;;5.53;2.35;;;21.40;83.00;;;;;;5046226;28;20059;-65
2023/09/13 07:08:05;;;;;;;1.58;1.13;;;21.30;82.30;;;;;;5055483;28;20154;-66
2023/09/13 07:10:30;;;;;;;2.22;0.85;;;21.10;81.60;;;;;;5062505;28;20479;-66
2023/09/13 07:12:57;;;;;;;0.45;0.32;;;20.80;80.20;;;;;;5050068;28;20032;-65
2023/09/13 07:15:25;;;;;;;0.43;0.43;;;20.50;79.20;;;;;;5056750;28;20028;-65
2023/09/13 07:17:51;;;;;;;0.40;0.40;;;20.20;79.40;;;;;;5054707;28;20021;-67
2023/09/13 07:20:17;;;;;;;0.75;0.30;;;20.00;79.50;;;;;;5067422;28;20144;-66
2023/09/13 07:22:43;;;;;;;0.40;0.30;;;19.90;79.50;;;;;;5058901;28;20064;-67
2023/09/13 07:25:08;;;;;;;0.40;0.32;;;19.80;79.50;;;;;;5059239;28;20025;-67
2023/09/13 07:27:34;;;;;;;0.30;0.30;;;19.70;79.50;;;;;;5047259;28;20074;-67
2023/09/13 07:30:00;;;;;;;0.30;0.30;;;19.70;79.30;;;;;;5067379;28;20050;-67
2023/09/13 07:32:27;;;;;;;0.43;0.20;;;19.60;79.40;;;;;;5058829;28;20083;-68
2023/09/13 07:34:53;;;;;;;1.05;0.45;;;19.50;79.50;;;;;;5050715;28;20040;-67
2023/09/13 07:37:19;;;;;;;0.90;0.40;;;19.50;79.60;;;;;;5060719;28;20054;-68
2023/09/13 07:39:45;;;;;;;0.40;0.20;;;19.50;79.60;;;;;;5052145;28;20029;-67
2023/09/13 07:42:11;;;;;;;0.28;0.28;;;19.50;79.50;;;;;;5045930;28;20029;-66
2023/09/13 07:44:37;;;;;;;0.82;0.30;;;19.50;79.60;;;;;;5045053;28;20032;-67
2023/09/13 07:47:03;;;;;;;0.20;0.20;;;19.60;79.50;;;;;;5059277;28;20502;-67
2023/09/13 07:49:29;;;;;;;0.30;0.30;;;19.70;79.30;;;;;;5056818;28;20024;-66
2023/09/13 07:51:54;;;;;;;0.30;0.30;;;19.70;79.20;;;;;;5066444;28;20107;-67
2023/09/13 07:54:20;;;;;;;1.92;0.40;;;19.80;79.10;;;;;;5069343;28;20037;-67
2023/09/13 07:56:46;;;;;;;0.35;0.35;;;19.90;79.10;;;;;;5072224;28;20039;-66
2023/09/13 07:59:15;;;;;;;0.40;0.40;;;20.00;79.10;;;;;;5030373;28;20024;-66
2023/09/13 08:01:41;;;;;;;0.32;0.20;;;20.20;78.50;;;;;;5069557;28;20041;-64
2023/09/13 08:04:07;;;;;;;0.50;0.50;;;20.20;78.30;;;;;;5068424;28;20086;-66
2023/09/13 08:06:32;;;;;;;0.30;0.30;;;20.20;78.00;;;;;;5043643;28;20048;-67
2023/09/13 08:08:58;;;;;;;0.77;0.77;;;20.10;78.00;;;;;;5067765;28;20111;-67
2023/09/13 08:11:24;;;;;;;0.20;0.20;;;20.10;77.90;;;;;;5064107;28;20044;-67
2023/09/13 08:13:49;;;;;;;0.40;0.40;;;20.00;77.90;;;;;;5065038;28;20021;-67
2023/09/13 08:16:15;;;;;;;0.73;0.30;;;20.00;77.90;;;;;;5042587;28;20396;-67
2023/09/13 08:18:41;;;;;;;0.30;0.30;;;20.10;78.00;;;;;;5066218;28;20028;-67
2023/09/13 08:21:07;;;;;;;0.30;0.30;;;20.10;77.70;;;;;;5063641;28;20061;-67
2023/09/13 08:23:33;;;;;;;1.02;0.70;;;20.10;78.30;;;;;;5066091;28;20040;-67
2023/09/13 08:25:59;;;;;;;0.40;0.20;;;20.10;77.80;;;;;;5066931;28;20036;-67
2023/09/13 08:28:24;;;;;;;0.40;0.30;;;20.10;77.70;;;;;;5050237;28;20024;-69
2023/09/13 08:30:51;;;;;;;0.85;0.40;;;20.20;77.90;;;;;;5067731;28;20036;-69
2023/09/13 08:33:16;;;;;;;0.20;0.17;;;20.30;77.80;;;;;;5044908;28;20383;-69
2023/09/13 08:35:42;;;;;;;1.08;0.30;;;20.30;77.70;;;;;;5067024;28;20024;-68
2023/09/13 08:38:08;;;;;;;3.92;0.40;;;20.40;77.60;;;;;;5068646;28;20036;-68
2023/09/13 08:40:41;;;;;;;0.30;0.30;;;20.50;76.90;;;;;;5062046;28;20387;-67
2023/09/13 08:43:10;;;;;;;0.30;0.30;;;20.50;76.90;;;;;;5063236;28;20023;-69
2023/09/13 08:45:37;;;;;;;0.52;0.40;;;20.60;76.70;;;;;;5061257;28;20032;-67
2023/09/13 08:48:06;;;;;;;0.35;0.35;;;20.70;76.60;;;;;;5059486;28;20662;-67
2023/09/13 08:50:34;;;;;;;2.08;0.80;;;20.80;76.50;;;;;;5067688;28;20033;-68
2023/09/13 08:53:02;;;;;;;0.28;0.25;;;20.80;75.70;;;;;;5064383;28;20017;-68
2023/09/13 08:55:28;;;;;;;0.45;0.45;;;20.80;76.10;;;;;;5048551;28;20036;-68
2023/09/13 08:57:56;;;;;;;0.60;0.40;;;20.80;76.60;;;;;;5068017;28;20055;-68
2023/09/13 09:00:25;;;;;;;0.55;0.32;;;20.80;75.40;;;;;;5065983;28;20037;-68
2023/09/13 09:02:52;;;;;;;0.30;0.30;;;20.70;75.30;;;;;;5058089;28;20545;-68
2023/09/13 09:05:18;;;;;;;1.95;0.40;;;20.70;75.40;;;;;;5061584;28;20805;-68
2023/09/13 09:07:46;;;;;;;3.20;0.57;;;20.80;75.20;;;;;;5062764;28;20024;-69
2023/09/13 09:10:12;;;;;;;2.15;0.57;;;21.00;74.70;;;;;;5058664;28;20036;-68
2023/09/13 09:12:50;;;;;;;0.30;0.20;;;21.10;74.30;;;;;;5062249;28;20029;-68
2023/09/13 09:15:18;;;;;;;0.40;0.30;;;21.20;74.30;;;;;;5060984;28;20039;-68
2023/09/13 09:17:47;;;;;;;0.40;0.40;;;21.30;73.70;;;;;;5061089;28;20555;-68
2023/09/13 09:20:13;;;;;;;0.47;0.30;;;21.50;73.10;;;;;;5062441;28;20044;-68
2023/09/13 09:22:39;;;;;;;2.30;0.50;;;21.60;72.80;;;;;;5058761;28;20060;-68
2023/09/13 09:25:10;;;;;;;1.83;0.52;;;21.70;72.40;;;;;;5064652;28;20071;-68
2023/09/13 09:27:38;;;;;;;0.70;0.30;;;21.90;72.40;;;;;;5064300;28;20040;-68
2023/09/13 09:30:05;;;;;;;0.40;0.40;;;22.10;72.10;;;;;;5064337;28;20032;-68
2023/09/13 09:32:31;;;;;;;0.60;0.43;;;22.20;71.60;;;;;;5047975;28;20039;-68
2023/09/13 09:35:00;;;;;;;0.50;0.50;;;22.20;71.50;;;;;;5064466;28;20683;-67
2023/09/13 09:37:30;;;;;;;1.55;0.75;;;22.40;71.40;;;;;;5064236;28;20037;-67
2023/09/13 09:39:56;;;;;;;0.32;0.32;;;22.50;71.10;;;;;;5066800;28;20029;-67
2023/09/13 09:42:22;;;;;;;0.40;0.40;;;22.60;70.60;;;;;;5065511;28;20048;-65
2023/09/13 09:44:48;;;;;;;0.85;0.20;;;22.70;70.10;;;;;;5064932;28;20496;-65
2023/09/13 09:47:14;;;;;;;0.20;0.20;;;22.90;69.30;;;;;;5063405;28;20403;-65
2023/09/13 09:49:43;;;;;;;0.57;0.57;;;22.90;69.20;;;;;;5063305;28;20098;-65
2023/09/13 09:52:10;;;;;;;0.20;0.20;;;23.10;69.10;;;;;;5061353;28;20027;-65
2023/09/13 09:54:37;;;;;;;0.73;0.47;;;23.10;68.30;;;;;;5032652;28;20055;-66
2023/09/13 09:57:04;;;;;;;0.20;0.20;;;23.10;68.30;;;;;;5068563;28;20121;-65
2023/09/13 09:59:30;;;;;;;0.45;0.45;;;23.10;68.40;;;;;;5048120;28;20025;-65
2023/09/13 10:01:57;;;;;;;0.43;0.40;;;23.30;68.10;;;;;;5044069;28;20032;-65
2023/09/13 10:04:23;;;;;;;1.08;0.40;;;23.50;67.80;;;;;;5064450;28;20162;-65
2023/09/13 10:07:00;;;;;;;0.90;0.30;;;23.60;67.80;;;;;;5065524;28;20116;-65
2023/09/13 10:09:46;;;;;;;0.35;0.35;;;23.60;67.50;;;;;;5061746;28;20057;-67
2023/09/13 10:12:13;;;;;;;0.22;0.22;;;23.60;67.50;;;;;;5064382;28;20088;-65
2023/09/13 10:14:41;;;;;;;2.17;0.30;;;23.60;67.10;;;;;;5061974;28;20029;-65
2023/09/13 10:17:09;;;;;;;0.45;0.30;;;23.60;66.50;;;;;;5065114;28;20029;-65
2023/09/13 10:19:35;;;;;;;0.68;0.68;;;23.50;66.70;;;;;;5063912;28;20066;-65
2023/09/13 10:22:02;;;;;;;0.45;0.35;;;23.30;66.70;;;;;;5058797;28;20074;-65
2023/09/13 10:24:38;;;;;;;2.63;0.75;;;23.10;66.50;;;;;;5045715;28;20032;-65
2023/09/13 10:27:09;;;;;;;0.85;0.40;;;23.20;66.50;;;;;;5059033;28;20056;-66
2023/09/13 10:29:38;;;;;;;2.17;0.43;;;23.30;65.90;;;;;;5057279;28;20192;-66
2023/09/13 10:32:08;;;;;;;1.75;0.93;;;23.50;64.80;;;;;;5066728;28;20036;-66
2023/09/13 10:34:38;;;;;;;0.60;0.60;;;23.60;64.80;;;;;;5047182;28;20124;-66
2023/09/13 10:37:25;;;;;;;0.75;0.60;;;23.60;64.70;;;;;;5063770;28;20367;-66
2023/09/13 10:39:59;;;;;;;1.45;0.47;;;23.60;64.20;;;;;;5064446;28;20438;-65
2023/09/13 10:42:25;;;;;;;2.35;1.13;;;23.40;63.70;;;;;;5068287;28;20525;-65
2023/09/13 10:44:53;;;;;;;0.57;0.50;;;23.30;64.00;;;;;;5053420;28;20102;-65
2023/09/13 10:47:19;;;;;;;1.60;0.60;;;23.30;64.40;;;;;;5067379;28;20032;-66
2023/09/13 10:49:47;;;;;;;0.50;0.50;;;23.20;64.60;;;;;;5068314;28;20119;-65
2023/09/13 10:52:14;;;;;;;2.08;0.82;;;23.20;64.40;;;;;;5067177;28;20029;-65
2023/09/13 10:54:41;;;;;;;1.20;0.60;;;23.10;64.20;;;;;;5069843;28;20021;-66
2023/09/13 10:57:08;;;;;;;2.53;0.50;;;23.00;64.60;;;;;;5050650;28;20108;-66
2023/09/13 10:59:36;;;;;;;2.67;0.45;;;23.00;63.80;;;;;;5050774;28;20082;-65
2023/09/13 11:02:04;;;;;;;0.45;0.35;;;23.00;64.20;;;;;;5067574;28;20131;-65
2023/09/13 11:04:31;;;;;;;0.63;0.55;;;23.30;64.00;;;;;;5049015;28;20033;-65
2023/09/13 11:06:58;;;;;;;1.70;0.90;;;23.50;63.40;;;;;;5066896;28;20115;-65
2023/09/13 11:09:31;;;;;;;0.82;0.60;;;23.30;63.10;;;;;;5066174;28;20494;-65
2023/09/13 11:11:58;;;;;;;0.50;0.50;;;23.10;63.60;;;;;;5070108;28;20082;-65
2023/09/13 11:14:26;;;;;;;0.50;0.50;;;22.80;64.00;;;;;;5067966;28;20040;-66
2023/09/13 11:16:52;;;;;;;3.17;0.60;;;22.60;64.60;;;;;;5066972;28;20035;-66
2023/09/13 11:19:24;;;;;;;0.73;0.55;;;22.50;64.90;;;;;;5065827;28;20550;-66
2023/09/13 11:21:52;;;;;;;1.20;0.50;;;22.50;65.00;;;;;;5062023;28;20029;-66
2023/09/13 11:24:41;;;;;;;0.57;0.55;;;22.50;64.90;;;;;;5071862;28;20412;-65
2023/09/13 11:27:25;;;;;;;1.73;0.50;;;22.40;64.80;;;;;;5051456;28;20024;-65
2023/09/13 11:29:57;;;;;;;1.75;0.93;;;22.30;64.90;;;;;;5073117;28;20507;-65
2023/09/13 11:32:28;;;;;;;0.77;0.40;;;22.30;65.30;;;;;;5069255;28;20024;-65
2023/09/13 11:34:59;;;;;;;2.88;1.00;;;22.30;65.40;;;;;;5069094;28;20040;-65
2023/09/13 11:37:26;;;;;;;0.33;0.30;;;22.30;64.80;;;;;;5048894;28;20025;-66
2023/09/13 11:40:06;;;;;;;0.65;0.63;;;22.30;64.80;;;;;;5048242;28;20045;-65
2023/09/13 11:42:32;;;;;;;0.73;0.65;;;22.30;65.20;;;;;;5062502;28;20487;-65
2023/09/13 11:44:58;;;;;;;1.65;0.63;;;22.40;65.40;;;;;;5064574;28;20443;-65
2023/09/13 11:47:24;;;;;;;0.45;0.30;;;22.60;65.10;;;;;;5065767;28;20028;-65
2023/09/13 11:49:57;;;;;;;0.52;0.43;;;22.80;64.50;;;;;;5062270;28;20285;-65
2023/09/13 11:52:23;;;;;;;2.78;1.15;;;22.90;64.20;;;;;;5056475;28;20036;-65
2023/09/13 11:54:58;;;;;;;2.28;0.68;;;22.90;64.10;;;;;;5051549;28;20033;-64
2023/09/13 11:57:48;;;;;;;2.28;0.40;;;23.00;63.80;;;;;;5065110;28;20167;-65
2023/09/13 12:00:19;;;;;;;0.50;0.40;;;23.10;63.90;;;;;;5061544;28;20029;-65
2023/09/13 12:02:45;;;;;;;1.85;0.52;;;23.10;64.00;;;;;;5061642;28;20044;-65
2023/09/13 12:05:12;;;;;;;0.65;0.55;;;23.20;64.20;;;;;;5070637;28;20055;-66
2023/09/13 12:07:38;;;;;;;1.02;0.50;;;23.50;63.40;;;;;;5066229;28;20348;-65
2023/09/13 12:10:05;;;;;;;1.05;0.40;;;23.90;62.50;;;;;;5066700;28;20037;-64
2023/09/13 12:12:41;;;;;;;0.30;0.30;;;24.20;61.80;;;;;;5066973;28;20028;-65
2023/09/13 12:15:16;;;;;;;0.30;0.30;;;24.30;61.10;;;;;;5070459;28;20025;-65
2023/09/13 12:17:42;;;;;;;1.67;0.70;;;24.40;60.80;;;;;;5070458;28;20025;-65
2023/09/13 12:20:10;;;;;;;1.10;0.50;;;24.40;59.30;;;;;;5066375;28;20478;-65
2023/09/13 12:22:42;;;;;;;0.45;0.35;;;24.40;59.50;;;;;;5065459;28;20475;-65
2023/09/13 12:25:13;;;;;;;0.20;0.20;;;24.40;59.60;;;;;;5069187;28;20131;-64
2023/09/13 12:27:39;;;;;;;0.50;0.50;;;24.30;59.70;;;;;;5059599;28;20472;-65
2023/09/13 12:30:17;;;;;;;2.30;0.50;;;24.30;60.00;;;;;;5065402;28;20029;-67
2023/09/13 12:32:44;;;;;;;0.47;0.47;;;24.70;59.50;;;;;;5064397;28;20479;-64
2023/09/13 12:35:11;;;;;;;1.02;0.40;;;24.80;59.40;;;;;;5068502;28;20016;-64
2023/09/13 12:37:37;;;;;;;1.92;0.98;;;24.80;59.60;;;;;;5062623;28;20040;-65
2023/09/13 12:40:13;;;;;;;0.50;0.50;;;24.60;59.30;;;;;;5069996;28;20028;-64
2023/09/13 12:42:39;;;;;;;0.50;0.50;;;24.20;59.40;;;;;;5066751;28;20036;-65
2023/09/13 12:45:06;;;;;;;0.73;0.73;;;23.70;60.60;;;;;;5051463;28;20025;-65
2023/09/13 12:47:32;;;;;;;1.42;1.00;;;23.30;61.70;;;;;;5066089;28;20107;-66